createdAt,value
2022-08-24T00:01:59.571Z,25.80
2022-08-24T00:04:28.349Z,25.80
2022-08-24T00:07:17.965Z,25.80
2022-08-24T00:10:00.521Z,25.80
2022-08-24T00:12:28.995Z,25.70
2022-08-24T00:14:58.931Z,25.70
2022-08-24T00:17:30.826Z,25.70
2022-08-24T00:20:00.537Z,25.70
2022-08-24T00:22:28.998Z,25.60
2022-08-24T00:25:00.768Z,25.60
2022-08-24T00:27:28.001Z,25.50
2022-08-24T00:29:59.732Z,25.50
2022-08-24T00:32:29.458Z,25.40
2022-08-24T00:34:58.723Z,25.40
2022-08-24T00:37:31.411Z,25.30
2022-08-24T00:40:01.369Z,25.30
2022-08-24T00:42:31.000Z,25.30
2022-08-24T00:45:00.628Z,25.20
2022-08-24T00:47:47.593Z,25.20
2022-08-24T00:50:25.393Z,25.10
2022-08-24T00:52:58.055Z,25.10
2022-08-24T00:55:36.376Z,25.10
2022-08-24T00:58:11.166Z,25.00
2022-08-24T01:00:49.647Z,25.00
2022-08-24T01:03:19.793Z,25.00
2022-08-24T01:05:49.141Z,25.00
2022-08-24T01:08:21.802Z,24.90
2022-08-24T01:11:00.409Z,24.90
2022-08-24T01:13:28.814Z,24.90
2022-08-24T01:16:04.707Z,24.90
2022-08-24T01:18:50.255Z,24.80
2022-08-24T01:21:38.275Z,24.80
2022-08-24T01:24:15.132Z,24.70
2022-08-24T01:26:49.778Z,24.70
2022-08-24T01:29:23.853Z,24.70
2022-08-24T01:31:51.752Z,24.60
2022-08-24T01:34:21.423Z,24.60
2022-08-24T01:36:51.805Z,24.50
2022-08-24T01:39:40.534Z,24.50
2022-08-24T01:42:14.405Z,24.50
2022-08-24T01:44:55.038Z,24.50
2022-08-24T01:47:22.261Z,24.50
2022-08-24T01:49:52.536Z,24.50
2022-08-24T01:52:25.193Z,24.50
2022-08-24T01:54:53.662Z,24.40
2022-08-24T01:57:24.198Z,24.40
2022-08-24T01:59:54.261Z,24.40
2022-08-24T02:02:29.509Z,24.40
2022-08-24T02:04:56.943Z,24.30
2022-08-24T02:07:26.647Z,24.30
2022-08-24T02:10:01.142Z,24.30
2022-08-24T02:12:30.804Z,24.30
2022-08-24T02:15:02.611Z,24.30
2022-08-24T02:17:29.805Z,24.30
2022-08-24T02:19:59.391Z,24.30
2022-08-24T02:22:27.044Z,24.30
2022-08-24T02:24:54.285Z,24.30
2022-08-24T02:27:21.430Z,24.20
2022-08-24T02:29:51.064Z,24.20
2022-08-24T02:32:18.422Z,24.20
2022-08-24T02:34:47.922Z,24.20
2022-08-24T02:37:19.378Z,24.10
2022-08-24T02:39:46.557Z,24.10
2022-08-24T02:42:15.441Z,24.10
2022-08-24T02:44:48.137Z,24.10
2022-08-24T02:47:18.340Z,24.00
2022-08-24T02:49:45.586Z,24.00
2022-08-24T02:52:15.139Z,24.00
2022-08-24T02:54:42.339Z,24.00
2022-08-24T02:57:12.013Z,23.90
2022-08-24T02:59:44.183Z,23.90
2022-08-24T03:02:11.752Z,23.90
2022-08-24T03:04:39.038Z,23.90
2022-08-24T03:07:08.353Z,23.80
2022-08-24T03:09:35.550Z,23.80
2022-08-24T03:12:03.033Z,23.80
2022-08-24T03:14:30.414Z,23.70
2022-08-24T03:17:01.963Z,23.70
2022-08-24T03:19:32.225Z,23.70
2022-08-24T03:21:59.448Z,23.70
2022-08-24T03:24:26.702Z,23.70
2022-08-24T03:26:54.019Z,23.60
2022-08-24T03:29:24.198Z,23.60
2022-08-24T03:31:53.616Z,23.60
2022-08-24T03:34:20.974Z,23.60
2022-08-24T03:36:52.650Z,23.50
2022-08-24T03:39:22.357Z,23.50
2022-08-24T03:41:52.097Z,23.50
2022-08-24T03:44:23.310Z,23.50
2022-08-24T03:46:50.630Z,23.50
2022-08-24T03:49:20.741Z,23.40
2022-08-24T03:51:53.181Z,23.40
2022-08-24T03:54:20.423Z,23.40
2022-08-24T03:56:50.153Z,23.40
2022-08-24T03:59:19.990Z,23.40
2022-08-24T04:01:49.885Z,23.30
2022-08-24T04:04:19.461Z,23.30
2022-08-24T04:06:51.330Z,23.20
2022-08-24T04:09:21.337Z,23.20
2022-08-24T04:11:54.179Z,23.20
2022-08-24T04:14:26.701Z,23.20
2022-08-24T04:16:59.573Z,23.20
2022-08-24T04:19:29.431Z,23.10
2022-08-24T04:21:59.022Z,23.10
2022-08-24T04:24:26.977Z,23.10
2022-08-24T04:26:56.500Z,23.00
2022-08-24T04:29:26.085Z,23.00
2022-08-24T04:31:54.342Z,23.10
2022-08-24T04:34:28.866Z,23.00
2022-08-24T04:36:56.098Z,23.00
2022-08-24T04:39:28.339Z,23.00
2022-08-24T04:42:02.970Z,23.00
2022-08-24T04:44:33.192Z,23.00
2022-08-24T04:47:04.043Z,22.90
2022-08-24T04:49:31.282Z,22.90
2022-08-24T04:52:01.387Z,22.90
2022-08-24T04:54:28.518Z,22.90
2022-08-24T04:56:57.863Z,22.90
2022-08-24T04:59:25.013Z,22.90
2022-08-24T05:01:54.656Z,22.90
2022-08-24T05:04:22.007Z,22.80
2022-08-24T05:06:53.220Z,22.80
2022-08-24T05:09:21.709Z,22.80
2022-08-24T05:11:49.927Z,22.80
2022-08-24T05:14:20.677Z,22.80
2022-08-24T05:16:53.157Z,22.80
2022-08-24T05:19:26.090Z,22.80
2022-08-24T05:21:53.509Z,22.80
2022-08-24T05:24:21.035Z,22.80
2022-08-24T05:26:52.391Z,22.80
2022-08-24T05:29:20.337Z,22.80
2022-08-24T05:31:47.760Z,22.80
2022-08-24T05:34:18.678Z,22.80
2022-08-24T05:36:46.113Z,22.80
2022-08-24T05:39:14.662Z,22.80
2022-08-24T05:41:44.653Z,22.90
2022-08-24T05:44:13.488Z,22.90
2022-08-24T05:46:41.410Z,22.90
2022-08-24T05:49:13.835Z,22.90
2022-08-24T05:51:42.719Z,22.90
2022-08-24T05:54:13.589Z,22.90
2022-08-24T05:56:42.945Z,22.90
2022-08-24T05:59:10.585Z,22.90
2022-08-24T06:01:45.481Z,23.00
2022-08-24T06:04:20.049Z,23.00
2022-08-24T06:06:50.109Z,23.00
2022-08-24T06:09:17.585Z,23.00
2022-08-24T06:11:48.560Z,23.00
2022-08-24T06:14:23.946Z,23.10
2022-08-24T06:17:02.076Z,23.10
2022-08-24T06:19:29.307Z,23.10
2022-08-24T06:21:56.566Z,23.20
2022-08-24T06:24:45.744Z,23.20
2022-08-24T06:27:21.693Z,23.20
2022-08-24T06:29:52.820Z,23.20
2022-08-24T06:32:22.560Z,23.30
2022-08-24T06:34:50.516Z,23.30
2022-08-24T06:37:20.243Z,23.40
2022-08-24T06:39:54.989Z,23.40
2022-08-24T06:42:24.975Z,23.40
2022-08-24T06:44:56.977Z,23.50
2022-08-24T06:47:28.733Z,23.50
2022-08-24T06:50:01.437Z,23.60
2022-08-24T06:52:28.732Z,23.60
2022-08-24T06:54:58.522Z,23.70
2022-08-24T06:57:25.720Z,23.70
2022-08-24T06:59:55.946Z,23.70
2022-08-24T07:02:25.658Z,23.80
2022-08-24T07:04:57.196Z,23.80
2022-08-24T07:07:26.497Z,23.90
2022-08-24T07:09:56.357Z,23.90
2022-08-24T07:12:27.048Z,23.90
2022-08-24T07:14:55.329Z,24.00
2022-08-24T07:17:23.009Z,24.10
2022-08-24T07:19:52.682Z,24.10
2022-08-24T07:22:22.491Z,24.20
2022-08-24T07:24:49.770Z,24.30
2022-08-24T07:27:23.322Z,24.40
2022-08-24T07:30:23.241Z,24.50
2022-08-24T07:32:47.074Z,24.60
2022-08-24T07:35:14.239Z,24.60
2022-08-24T07:37:43.679Z,24.70
2022-08-24T07:40:16.453Z,24.80
2022-08-24T07:42:53.602Z,24.80
2022-08-24T07:45:22.500Z,24.90
2022-08-24T07:47:55.489Z,25.00
2022-08-24T07:50:23.289Z,25.00
2022-08-24T07:52:55.203Z,25.10
2022-08-24T07:55:25.381Z,25.10
2022-08-24T07:57:52.936Z,25.20
2022-08-24T08:00:21.493Z,25.20
2022-08-24T08:02:52.081Z,25.30
2022-08-24T08:05:22.635Z,25.30
2022-08-24T08:07:53.070Z,25.40
2022-08-24T08:10:25.703Z,25.40
2022-08-24T08:12:52.974Z,25.50
2022-08-24T08:15:22.726Z,25.50
2022-08-24T08:18:02.787Z,25.60
2022-08-24T08:20:32.573Z,25.60
2022-08-24T08:23:18.268Z,25.70
2022-08-24T08:25:54.463Z,25.70
2022-08-24T08:28:26.225Z,25.80
2022-08-24T08:31:06.445Z,25.90
2022-08-24T08:33:36.344Z,25.90
2022-08-24T08:36:12.716Z,26.00
2022-08-24T08:38:41.036Z,26.10
2022-08-24T08:41:24.577Z,26.10
2022-08-24T08:44:12.130Z,26.20
2022-08-24T08:47:02.815Z,26.30
2022-08-24T08:49:48.589Z,26.30
2022-08-24T08:52:36.874Z,26.30
2022-08-24T08:55:44.216Z,26.40
2022-08-24T08:58:33.235Z,26.40
2022-08-24T09:01:32.840Z,26.50
2022-08-24T09:04:21.395Z,26.50
2022-08-24T09:07:17.274Z,26.60
2022-08-24T09:09:52.573Z,26.70
2022-08-24T09:13:14.966Z,26.80
2022-08-24T09:15:47.348Z,26.80
2022-08-24T09:18:32.731Z,26.90
2022-08-24T09:21:21.046Z,26.90
2022-08-24T09:24:15.962Z,27.00
2022-08-24T09:27:21.709Z,27.10
2022-08-24T09:30:18.427Z,27.20
2022-08-24T09:33:00.363Z,27.20
2022-08-24T09:35:51.195Z,27.30
2022-08-24T09:38:31.865Z,27.30
2022-08-24T09:41:23.681Z,27.40
2022-08-24T09:44:06.219Z,27.50
2022-08-24T09:47:12.273Z,27.60
2022-08-24T09:50:06.739Z,27.60
2022-08-24T09:52:39.661Z,27.70
2022-08-24T09:55:15.772Z,27.70
2022-08-24T09:58:14.930Z,27.80
2022-08-24T10:00:47.225Z,27.90
2022-08-24T10:03:38.946Z,27.90
2022-08-24T10:06:15.301Z,28.00
2022-08-24T10:09:13.707Z,28.10
2022-08-24T10:12:24.966Z,28.10
2022-08-24T10:15:12.462Z,28.20
2022-08-24T10:18:07.979Z,28.20
2022-08-24T10:20:50.639Z,28.30
2022-08-24T10:23:58.832Z,28.30
2022-08-24T10:26:34.237Z,28.40
2022-08-24T10:29:07.446Z,28.40
2022-08-24T10:31:57.964Z,28.50
2022-08-24T10:35:00.187Z,28.50
2022-08-24T10:38:18.588Z,28.60
2022-08-24T10:41:01.587Z,28.70
2022-08-24T10:43:46.338Z,28.60
2022-08-24T10:46:38.340Z,28.70
2022-08-24T10:49:39.343Z,28.70
2022-08-24T10:52:31.543Z,28.70
2022-08-24T10:55:17.166Z,28.80
2022-08-24T10:58:10.338Z,28.80
2022-08-24T11:00:37.907Z,28.80
2022-08-24T11:03:18.477Z,28.80
2022-08-24T11:05:53.937Z,28.80
2022-08-24T11:08:27.202Z,28.90
2022-08-24T11:11:06.828Z,28.90
2022-08-24T11:13:50.678Z,28.90
2022-08-24T11:16:38.715Z,28.90
2022-08-24T11:19:25.941Z,28.90
2022-08-24T11:21:57.768Z,29.00
2022-08-24T11:24:46.297Z,29.10
2022-08-24T11:27:16.564Z,29.10
2022-08-24T11:29:49.665Z,29.10
2022-08-24T11:32:45.426Z,29.20
2022-08-24T11:35:21.745Z,29.20
2022-08-24T11:37:57.762Z,29.20
2022-08-24T11:40:33.934Z,29.20
2022-08-24T11:43:32.963Z,29.20
2022-08-24T11:46:12.220Z,29.30
2022-08-24T11:48:51.923Z,29.40
2022-08-24T11:51:35.741Z,29.40
2022-08-24T11:54:12.242Z,29.40
2022-08-24T11:57:18.157Z,29.40
2022-08-24T12:00:14.026Z,29.50
2022-08-24T12:03:03.226Z,29.50
2022-08-24T12:05:55.382Z,29.60
2022-08-24T12:08:31.406Z,29.60
2022-08-24T12:11:04.173Z,29.60
2022-08-24T12:13:43.675Z,29.70
2022-08-24T12:16:20.558Z,29.70
2022-08-24T12:19:07.504Z,29.70
2022-08-24T12:21:41.095Z,29.80
2022-08-24T12:24:22.813Z,29.80
2022-08-24T12:26:57.149Z,29.80
2022-08-24T12:29:40.675Z,29.80
2022-08-24T12:32:13.885Z,29.80
2022-08-24T12:35:10.075Z,29.80
2022-08-24T12:37:45.346Z,29.90
2022-08-24T12:40:33.872Z,29.90
2022-08-24T12:43:23.268Z,29.90
2022-08-24T12:45:59.460Z,30.00
2022-08-24T12:48:31.373Z,30.00
2022-08-24T12:51:39.177Z,30.00
2022-08-24T12:54:33.208Z,30.10
2022-08-24T12:57:27.176Z,30.20
2022-08-24T13:00:07.074Z,30.30
2022-08-24T13:02:48.204Z,30.30
2022-08-24T13:05:20.771Z,30.40
2022-08-24T13:07:54.959Z,30.40
2022-08-24T13:10:24.943Z,30.40
2022-08-24T13:13:04.343Z,30.40
2022-08-24T13:15:31.527Z,30.50
2022-08-24T13:18:07.740Z,30.50
2022-08-24T13:20:36.156Z,30.60
2022-08-24T13:23:16.058Z,30.60
2022-08-24T13:25:51.284Z,30.60
2022-08-24T13:28:24.299Z,30.70
2022-08-24T13:31:17.745Z,30.70
2022-08-24T13:34:24.979Z,30.80
2022-08-24T13:37:15.989Z,30.90
2022-08-24T13:40:22.703Z,30.90
2022-08-24T13:43:19.073Z,31.00
2022-08-24T13:46:14.147Z,31.10
2022-08-24T13:48:50.402Z,31.20
2022-08-24T13:51:44.691Z,31.20
2022-08-24T13:54:32.511Z,31.30
2022-08-24T13:57:23.829Z,31.30
2022-08-24T13:59:59.001Z,31.40
2022-08-24T14:02:50.255Z,31.50
2022-08-24T14:05:27.681Z,31.60
2022-08-24T14:08:20.859Z,31.70
2022-08-24T14:11:19.340Z,31.70
2022-08-24T14:14:16.391Z,31.80
2022-08-24T14:17:08.463Z,31.80
2022-08-24T14:20:22.225Z,31.80
2022-08-24T14:23:00.783Z,31.80
2022-08-24T14:25:34.138Z,31.90
2022-08-24T14:28:01.346Z,31.90
2022-08-24T14:30:28.520Z,32.00
2022-08-24T14:33:00.935Z,32.00
2022-08-24T14:35:51.680Z,32.10
2022-08-24T14:38:23.913Z,32.00
2022-08-24T14:41:20.606Z,32.00
2022-08-24T14:44:19.880Z,32.10
2022-08-24T14:47:08.286Z,32.10
2022-08-24T14:49:45.029Z,32.10
2022-08-24T14:52:30.449Z,32.10
2022-08-24T14:55:15.795Z,32.10
2022-08-24T14:58:06.513Z,32.20
2022-08-24T15:00:59.517Z,32.20
2022-08-24T15:03:50.365Z,32.20
2022-08-24T15:06:45.034Z,32.20
2022-08-24T15:09:35.614Z,32.30
2022-08-24T15:12:35.431Z,32.30
2022-08-24T15:15:09.314Z,32.40
2022-08-24T15:17:43.312Z,32.40
2022-08-24T15:20:39.073Z,32.40
2022-08-24T15:23:35.660Z,32.40
2022-08-24T15:26:39.314Z,32.40
2022-08-24T15:29:19.542Z,32.40
2022-08-24T15:32:04.207Z,32.40
2022-08-24T15:34:45.522Z,32.40
2022-08-24T15:37:24.776Z,32.40
2022-08-24T15:39:52.168Z,32.40
2022-08-24T15:42:21.887Z,32.40
2022-08-24T15:44:53.121Z,32.40
2022-08-24T15:47:20.458Z,32.40
2022-08-24T15:49:59.818Z,32.40
2022-08-24T15:52:39.130Z,32.30
2022-08-24T15:55:08.424Z,32.30
2022-08-24T15:57:45.245Z,32.40
2022-08-24T16:00:44.359Z,32.30
2022-08-24T16:03:47.943Z,32.30
2022-08-24T16:06:26.129Z,32.30
2022-08-24T16:09:00.374Z,32.30
2022-08-24T16:12:01.123Z,32.30
2022-08-24T16:14:38.825Z,32.30
2022-08-24T16:17:35.424Z,32.30
2022-08-24T16:20:11.744Z,32.30
2022-08-24T16:22:56.578Z,32.30
2022-08-24T16:25:34.629Z,32.30
2022-08-24T16:28:12.452Z,32.30
2022-08-24T16:30:49.420Z,32.30
2022-08-24T16:33:32.329Z,32.30
2022-08-24T16:36:07.515Z,32.30
2022-08-24T16:38:46.834Z,32.30
2022-08-24T16:41:21.650Z,32.40
2022-08-24T16:43:51.230Z,32.40
2022-08-24T16:46:28.684Z,32.50
2022-08-24T16:49:02.922Z,32.60
2022-08-24T16:51:35.734Z,32.70
2022-08-24T16:54:10.474Z,32.70
2022-08-24T16:56:40.649Z,32.70
2022-08-24T16:59:14.685Z,32.80
2022-08-24T17:01:50.322Z,32.90
2022-08-24T17:04:20.223Z,32.90
2022-08-24T17:06:50.937Z,33.00
2022-08-24T17:09:21.195Z,33.10
2022-08-24T17:11:53.193Z,33.10
2022-08-24T17:14:24.953Z,33.10
2022-08-24T17:16:55.108Z,33.10
2022-08-24T17:19:22.420Z,33.20
2022-08-24T17:21:54.267Z,33.10
2022-08-24T17:24:22.950Z,33.10
2022-08-24T17:26:54.503Z,33.10
2022-08-24T17:29:24.883Z,33.10
2022-08-24T17:31:54.642Z,33.10
2022-08-24T17:34:29.644Z,33.10
2022-08-24T17:37:02.550Z,33.10
2022-08-24T17:39:32.030Z,33.00
2022-08-24T17:42:00.277Z,33.00
2022-08-24T17:44:33.502Z,33.00
2022-08-24T17:47:05.024Z,32.90
2022-08-24T17:49:34.926Z,32.90
2022-08-24T17:52:02.522Z,32.90
2022-08-24T17:54:32.362Z,32.90
2022-08-24T17:57:07.108Z,32.90
2022-08-24T17:59:38.593Z,32.90
2022-08-24T18:02:14.747Z,32.80
2022-08-24T18:04:44.597Z,32.80
2022-08-24T18:07:35.781Z,32.80
2022-08-24T18:10:08.796Z,32.80
2022-08-24T18:12:36.013Z,32.70
2022-08-24T18:15:08.599Z,32.70
2022-08-24T18:17:51.266Z,32.70
2022-08-24T18:20:28.257Z,32.70
2022-08-24T18:22:58.089Z,32.70
2022-08-24T18:25:28.218Z,32.60
2022-08-24T18:27:57.588Z,32.50
2022-08-24T18:30:28.954Z,32.50
2022-08-24T18:33:01.858Z,32.40
2022-08-24T18:35:30.792Z,32.40
2022-08-24T18:38:00.793Z,32.40
2022-08-24T18:40:33.213Z,32.30
2022-08-24T18:43:04.186Z,32.20
2022-08-24T18:45:33.028Z,32.20
2022-08-24T18:48:02.957Z,32.10
2022-08-24T18:50:36.818Z,32.10
2022-08-24T18:53:10.327Z,32.00
2022-08-24T18:55:38.983Z,32.00
2022-08-24T18:58:08.494Z,31.90
2022-08-24T19:00:40.205Z,31.80
2022-08-24T19:03:09.507Z,31.80
2022-08-24T19:05:40.145Z,31.70
2022-08-24T19:08:10.019Z,31.60
2022-08-24T19:10:37.736Z,31.60
2022-08-24T19:13:18.373Z,31.50
2022-08-24T19:15:48.175Z,31.50
2022-08-24T19:18:17.806Z,31.40
2022-08-24T19:20:50.557Z,31.40
2022-08-24T19:23:27.268Z,31.30
2022-08-24T19:25:55.008Z,31.20
2022-08-24T19:28:28.023Z,31.20
2022-08-24T19:31:03.731Z,31.10
2022-08-24T19:33:38.333Z,31.10
2022-08-24T19:36:08.799Z,31.10
2022-08-24T19:38:36.066Z,31.00
2022-08-24T19:41:12.806Z,31.00
2022-08-24T19:44:00.856Z,31.00
2022-08-24T19:46:28.286Z,30.90
2022-08-24T19:48:57.875Z,30.90
2022-08-24T19:51:26.034Z,30.80
2022-08-24T19:53:55.596Z,30.80
2022-08-24T19:56:25.078Z,30.80
2022-08-24T19:59:26.047Z,30.80
2022-08-24T20:01:53.581Z,30.80
2022-08-24T20:04:23.863Z,30.70
2022-08-24T20:06:53.747Z,30.70
2022-08-24T20:09:23.593Z,30.70
2022-08-24T20:11:53.490Z,30.60
2022-08-24T20:14:20.905Z,30.60
2022-08-24T20:16:51.021Z,30.50
2022-08-24T20:19:18.543Z,30.40
2022-08-24T20:21:45.841Z,30.40
2022-08-24T20:24:17.794Z,30.40
2022-08-24T20:26:49.943Z,30.30
2022-08-24T20:29:22.303Z,30.30
2022-08-24T20:31:50.703Z,30.20
2022-08-24T20:34:21.854Z,30.20
2022-08-24T20:36:52.874Z,30.10
2022-08-24T20:39:25.883Z,30.10
2022-08-24T20:41:53.445Z,30.10
2022-08-24T20:44:21.520Z,30.10
2022-08-24T20:46:50.607Z,30.00
2022-08-24T20:49:22.254Z,30.00
2022-08-24T20:51:49.506Z,30.00
2022-08-24T20:54:18.941Z,30.00
2022-08-24T20:56:46.157Z,29.90
2022-08-24T20:59:15.918Z,29.80
2022-08-24T21:01:43.143Z,29.80
2022-08-24T21:04:10.876Z,29.80
2022-08-24T21:06:44.574Z,29.70
2022-08-24T21:09:14.792Z,29.70
2022-08-24T21:11:43.219Z,29.60
2022-08-24T21:14:12.964Z,29.60
2022-08-24T21:16:46.207Z,29.50
2022-08-24T21:19:17.807Z,29.50
2022-08-24T21:21:46.903Z,29.50
2022-08-24T21:24:19.531Z,29.40
2022-08-24T21:26:50.885Z,29.40
2022-08-24T21:29:20.336Z,29.40
2022-08-24T21:32:07.556Z,29.30
2022-08-24T21:34:42.985Z,29.30
2022-08-24T21:37:18.739Z,29.30
2022-08-24T21:39:48.642Z,29.20
2022-08-24T21:42:21.471Z,29.20
2022-08-24T21:44:51.229Z,29.20
2022-08-24T21:47:20.573Z,29.20
2022-08-24T21:49:52.880Z,29.10
2022-08-24T21:52:22.267Z,29.00
2022-08-24T21:54:49.545Z,29.00
2022-08-24T21:57:24.638Z,29.00
2022-08-24T21:59:54.385Z,29.00
2022-08-24T22:02:25.577Z,28.90
2022-08-24T22:04:56.601Z,28.80
2022-08-24T22:07:24.784Z,28.80
2022-08-24T22:09:54.301Z,28.80
2022-08-24T22:12:21.556Z,28.70
2022-08-24T22:14:48.824Z,28.70
2022-08-24T22:17:16.103Z,28.60
2022-08-24T22:19:45.669Z,28.60
2022-08-24T22:22:12.886Z,28.60
2022-08-24T22:24:42.668Z,28.50
2022-08-24T22:27:14.824Z,28.50
2022-08-24T22:29:44.496Z,28.50
2022-08-24T22:32:12.657Z,28.40
2022-08-24T22:34:40.012Z,28.40
2022-08-24T22:37:07.328Z,28.30
2022-08-24T22:39:34.528Z,28.30
2022-08-24T22:42:06.711Z,28.30
2022-08-24T22:44:36.570Z,28.30
2022-08-24T22:47:12.951Z,28.20
2022-08-24T22:49:45.634Z,28.20
2022-08-24T22:52:14.409Z,28.10
2022-08-24T22:54:43.784Z,28.10
2022-08-24T22:57:13.469Z,28.10
2022-08-24T22:59:44.879Z,28.00
2022-08-24T23:02:16.723Z,28.00
2022-08-24T23:04:49.920Z,27.90
2022-08-24T23:07:22.237Z,27.90
2022-08-24T23:09:50.064Z,27.80
2022-08-24T23:12:22.561Z,27.80
2022-08-24T23:14:51.806Z,27.70
2022-08-24T23:17:22.710Z,27.70
2022-08-24T23:20:01.945Z,27.60
2022-08-24T23:22:39.863Z,27.60
2022-08-24T23:25:09.348Z,27.50
2022-08-24T23:27:37.867Z,27.50
2022-08-24T23:30:09.567Z,27.40
2022-08-24T23:32:39.833Z,27.40
2022-08-24T23:35:07.329Z,27.40
2022-08-24T23:37:39.450Z,27.30
2022-08-24T23:40:07.351Z,27.30
2022-08-24T23:42:36.786Z,27.20
2022-08-24T23:45:08.820Z,27.20
2022-08-24T23:47:40.361Z,27.20
2022-08-24T23:50:11.375Z,27.10
2022-08-24T23:52:39.273Z,27.10
2022-08-24T23:55:20.201Z,27.10
2022-08-24T23:57:52.169Z,27.00
